createdAt,value
2022-10-10T00:02:36.196Z,91.94
2022-10-10T00:08:07.912Z,91.51
2022-10-10T00:13:39.595Z,91.35
2022-10-10T00:19:11.309Z,91.71
2022-10-10T00:24:43.074Z,92.23
2022-10-10T00:30:14.806Z,92.38
2022-10-10T00:35:46.527Z,93.24
2022-10-10T00:41:18.222Z,93.0
2022-10-10T00:46:50.019Z,93.25
2022-10-10T00:52:26.050Z,92.71
2022-10-10T00:57:57.770Z,91.82
2022-10-10T01:03:29.530Z,92.76
2022-10-10T01:09:01.179Z,92.5
2022-10-10T01:14:32.942Z,92.19
2022-10-10T01:20:04.847Z,92.38
2022-10-10T01:25:36.408Z,92.51
2022-10-10T01:31:08.243Z,92.09
2022-10-10T01:36:39.842Z,92.1
2022-10-10T01:42:11.542Z,91.86
2022-10-10T01:47:43.333Z,91.74
2022-10-10T01:53:19.430Z,92.17
2022-10-10T01:58:51.154Z,91.8
2022-10-10T02:04:23.090Z,92.22
2022-10-10T02:09:54.601Z,92.13
2022-10-10T02:15:26.273Z,93.66
2022-10-10T02:20:58.042Z,94.34
2022-10-10T02:26:29.709Z,93.75
2022-10-10T02:32:01.497Z,93.47
2022-10-10T02:37:33.182Z,93.48
2022-10-10T02:43:04.931Z,93.93
2022-10-10T02:48:36.606Z,93.29
2022-10-10T02:54:12.785Z,93.33
2022-10-10T02:59:44.522Z,93.31
2022-10-10T03:05:16.238Z,94.08
2022-10-10T03:10:47.946Z,94.29
2022-10-10T03:16:19.681Z,94.28
2022-10-10T03:21:51.397Z,93.9
2022-10-10T03:27:23.185Z,93.73
2022-10-10T03:32:54.864Z,94.02
2022-10-10T03:38:26.615Z,94.23
2022-10-10T03:43:58.254Z,94.66
2022-10-10T03:49:30.009Z,94.45
2022-10-10T03:55:06.133Z,94.53
2022-10-10T04:00:37.929Z,94.8
2022-10-10T04:06:09.625Z,95.03
2022-10-10T04:11:41.318Z,95.21
2022-10-10T04:17:13.010Z,94.97
2022-10-10T04:22:44.776Z,96.33
2022-10-10T04:28:16.545Z,95.64
2022-10-10T04:33:48.345Z,95.44
2022-10-10T04:39:19.929Z,95.61
2022-10-10T04:44:51.637Z,96.0
2022-10-10T04:50:23.369Z,95.6
2022-10-10T04:55:59.509Z,95.08
2022-10-10T05:01:31.341Z,95.82
2022-10-10T05:07:02.966Z,95.66
2022-10-10T05:12:34.914Z,95.89
2022-10-10T05:18:07.070Z,95.81
2022-10-10T05:23:38.217Z,96.44
2022-10-10T05:29:09.902Z,96.22
2022-10-10T05:34:41.678Z,96.42
2022-10-10T05:40:13.335Z,96.45
2022-10-10T05:45:45.069Z,97.0
2022-10-10T05:51:16.881Z,97.39
2022-10-10T05:56:52.877Z,96.95
2022-10-10T06:02:24.635Z,97.25
2022-10-10T06:08:11.449Z,97.49
2022-10-10T06:13:28.078Z,97.52
2022-10-10T06:18:59.789Z,98.0
2022-10-10T06:24:31.502Z,98.57
2022-10-10T06:30:03.465Z,99.8
2022-10-10T06:35:34.946Z,98.98
2022-10-10T06:41:06.675Z,98.0
2022-10-10T06:46:38.370Z,98.43
2022-10-10T06:52:10.111Z,98.15
2022-10-10T06:57:46.293Z,97.5
2022-10-10T07:03:17.917Z,98.02
2022-10-10T07:08:49.668Z,96.63
2022-10-10T07:14:21.369Z,96.99
2022-10-10T07:19:53.065Z,95.56
2022-10-10T07:25:24.838Z,96.22
2022-10-10T07:30:56.525Z,97.3
2022-10-10T07:36:28.219Z,96.43
2022-10-10T07:41:59.996Z,96.57
2022-10-10T07:47:31.736Z,97.12
2022-10-10T07:53:03.542Z,95.68
2022-10-10T07:58:39.564Z,95.64
2022-10-10T08:04:11.289Z,95.25
2022-10-10T08:09:42.974Z,95.09
2022-10-10T08:15:14.713Z,96.09
2022-10-10T08:20:46.466Z,95.48
2022-10-10T08:26:18.214Z,96.49
2022-10-10T08:31:49.851Z,95.02
2022-10-10T08:37:29.741Z,94.63
2022-10-10T08:42:53.717Z,95.19
2022-10-10T08:48:25.003Z,94.39
2022-10-10T08:53:56.893Z,94.53
2022-10-10T08:59:32.849Z,93.34
2022-10-10T09:05:04.615Z,92.57
2022-10-10T09:10:36.260Z,93.32
2022-10-10T09:16:08.049Z,93.57
2022-10-10T09:21:39.828Z,93.76
2022-10-10T09:27:11.486Z,93.61
2022-10-10T09:32:43.213Z,93.25
2022-10-10T09:38:14.930Z,92.89
2022-10-10T09:43:46.694Z,92.24
2022-10-10T09:49:18.388Z,92.4
2022-10-10T09:54:50.206Z,92.75
2022-10-10T10:00:26.222Z,91.89
2022-10-10T10:05:58.193Z,92.48
2022-10-10T10:11:29.794Z,92.28
2022-10-10T10:17:01.468Z,90.59
2022-10-10T10:22:33.198Z,90.63
2022-10-10T10:28:04.994Z,89.68
2022-10-10T10:33:36.733Z,89.0
2022-10-10T10:39:08.393Z,89.51
2022-10-10T10:44:40.185Z,89.16
2022-10-10T10:50:11.824Z,88.93
2022-10-10T10:55:43.552Z,88.08
2022-10-10T11:01:55.730Z,87.26
2022-10-10T11:07:19.330Z,85.76
2022-10-10T11:12:23.132Z,85.33
2022-10-10T11:17:54.814Z,84.45
2022-10-10T11:23:26.590Z,81.57
2022-10-10T11:28:58.552Z,80.25
2022-10-10T11:34:29.967Z,78.54
2022-10-10T11:40:01.645Z,78.26
2022-10-10T11:45:33.462Z,76.9
2022-10-10T11:51:05.188Z,77.08
2022-10-10T11:56:36.963Z,77.6
2022-10-10T12:02:13.047Z,75.24
2022-10-10T12:07:44.752Z,74.37
2022-10-10T12:13:16.518Z,73.21
2022-10-10T12:18:48.232Z,74.21
2022-10-10T12:24:20.215Z,73.83
2022-10-10T12:29:51.987Z,75.43
2022-10-10T12:35:23.373Z,77.22
2022-10-10T12:40:55.074Z,78.29
2022-10-10T12:46:26.781Z,75.76
2022-10-10T12:51:58.708Z,76.08
2022-10-10T12:57:30.214Z,75.89
2022-10-10T13:03:08.393Z,75.7
2022-10-10T13:08:40.103Z,74.2
2022-10-10T13:14:11.821Z,74.23
2022-10-10T13:19:43.530Z,74.1
2022-10-10T13:25:15.283Z,72.24
2022-10-10T13:30:47.072Z,74.38
2022-10-10T13:36:18.709Z,72.42
2022-10-10T13:41:50.509Z,73.59
2022-10-10T13:47:22.165Z,74.5
2022-10-10T13:52:53.918Z,74.1
2022-10-10T13:58:25.637Z,72.31
2022-10-10T14:04:01.737Z,75.25
2022-10-10T14:09:33.488Z,73.24
2022-10-10T14:15:05.218Z,73.28
2022-10-10T14:20:36.857Z,74.04
2022-10-10T14:26:08.618Z,73.04
2022-10-10T14:31:40.394Z,72.01
2022-10-10T14:37:12.165Z,73.89
2022-10-10T14:42:43.894Z,74.73
2022-10-10T14:48:15.616Z,75.93
2022-10-10T14:54:14.296Z,72.3
2022-10-10T14:59:50.128Z,75.72
2022-10-10T15:04:55.178Z,77.67
2022-10-10T15:10:35.528Z,75.2
2022-10-10T15:15:58.626Z,75.47
2022-10-10T15:21:30.384Z,75.16
2022-10-10T15:27:02.105Z,75.03
2022-10-10T15:32:33.869Z,73.43
2022-10-10T15:38:05.674Z,74.88
2022-10-10T15:43:37.633Z,77.51
2022-10-10T15:49:09.108Z,79.53
2022-10-10T15:54:40.734Z,79.59
2022-10-10T16:00:12.472Z,80.27
2022-10-10T16:05:50.589Z,80.53
2022-10-10T16:11:22.385Z,80.38
2022-10-10T16:16:54.061Z,80.58
2022-10-10T16:22:25.852Z,80.88
2022-10-10T16:27:57.482Z,80.8
2022-10-10T16:33:29.201Z,81.12
2022-10-10T16:39:00.918Z,81.23
2022-10-10T16:44:32.770Z,81.03
2022-10-10T16:50:04.478Z,81.03
2022-10-10T16:55:36.194Z,80.54
2022-10-10T17:01:08.799Z,81.31
2022-10-10T17:06:44.051Z,80.81
2022-10-10T17:12:15.833Z,81.05
2022-10-10T17:17:47.510Z,80.98
2022-10-10T17:23:19.249Z,81.7
2022-10-10T17:28:51.112Z,82.18
2022-10-10T17:34:22.726Z,81.66
2022-10-10T17:39:54.590Z,82.39
2022-10-10T17:45:26.222Z,82.64
2022-10-10T17:50:57.846Z,82.98
2022-10-10T17:56:29.739Z,82.69
2022-10-10T18:02:01.311Z,82.19
2022-10-10T18:07:37.447Z,83.33
2022-10-10T18:13:09.202Z,83.58
2022-10-10T18:18:40.901Z,87.15
2022-10-10T18:24:12.621Z,87.26
2022-10-10T18:29:44.453Z,91.53
2022-10-10T18:35:16.062Z,96.81
2022-10-10T18:40:47.795Z,94.15
2022-10-10T18:46:19.537Z,95.65
2022-10-10T18:51:51.265Z,94.92
2022-10-10T18:57:23.009Z,95.36
2022-10-10T19:02:54.698Z,95.16
2022-10-10T19:08:30.803Z,96.12
2022-10-10T19:14:02.518Z,97.22
2022-10-10T19:19:34.236Z,97.0
2022-10-10T19:25:06.026Z,100.0
2022-10-10T19:30:37.712Z,100.0
2022-10-10T19:36:09.469Z,100.0
2022-10-10T19:41:41.182Z,100.0
2022-10-10T19:47:12.904Z,100.0
2022-10-10T19:52:44.651Z,100.0
2022-10-10T19:58:16.385Z,100.0
2022-10-10T20:03:48.102Z,100.0
2022-10-10T20:09:26.222Z,100.0
2022-10-10T20:14:57.927Z,100.0
2022-10-10T20:20:29.659Z,100.0
2022-10-10T20:26:02.618Z,100.0
2022-10-10T20:31:33.137Z,100.0
2022-10-10T20:37:04.867Z,100.0
2022-10-10T20:42:36.519Z,100.0
2022-10-10T20:48:08.304Z,100.0
2022-10-10T20:53:40.061Z,100.0
2022-10-10T20:59:11.759Z,100.0
2022-10-10T21:04:43.457Z,100.0
2022-10-10T21:10:19.588Z,100.0
2022-10-10T21:15:51.301Z,100.0
2022-10-10T21:21:23.038Z,100.0
2022-10-10T21:26:54.744Z,100.0
2022-10-10T21:32:26.588Z,100.0
2022-10-10T21:37:58.232Z,100.0
2022-10-10T21:43:29.931Z,100.0
2022-10-10T21:49:01.696Z,100.0
2022-10-10T21:54:33.509Z,100.0
2022-10-10T22:00:05.514Z,100.0
2022-10-10T22:05:36.908Z,100.0
2022-10-10T22:11:13.058Z,100.0
2022-10-10T22:16:44.821Z,100.0
2022-10-10T22:22:17.057Z,100.0
2022-10-10T22:27:48.096Z,100.0
2022-10-10T22:33:20.015Z,100.0
2022-10-10T22:38:52.643Z,100.0
2022-10-10T22:44:23.324Z,100.0
2022-10-10T22:49:55.048Z,100.0
2022-10-10T22:55:26.781Z,100.0
2022-10-10T23:00:58.606Z,100.0
2022-10-10T23:06:30.203Z,100.0
2022-10-10T23:12:06.400Z,100.0
2022-10-10T23:17:38.150Z,100.0
2022-10-10T23:23:09.836Z,100.0
2022-10-10T23:28:41.784Z,100.0
2022-10-10T23:34:13.283Z,100.0
2022-10-10T23:39:45.066Z,100.0
2022-10-10T23:45:16.787Z,100.0
2022-10-10T23:50:48.534Z,100.0
2022-10-10T23:56:20.215Z,100.0
